sensor_id;sensor_type;location;lat;lon;timestamp;pressure;altitude;pressure_sealevel;temperature;humidity
45939;BME280;31650;48.818;9.116;2023-05-22T00:13:09;97588.41;;;13.10;100.00
45939;BME280;31650;48.818;9.116;2023-05-22T00:28:27;97576.44;;;12.94;100.00
45939;BME280;31650;48.818;9.116;2023-05-22T00:43:28;97585.38;;;12.78;100.00
45939;BME280;31650;48.818;9.116;2023-05-22T00:58:28;97584.25;;;12.62;100.00
45939;BME280;31650;48.818;9.116;2023-05-22T01:13:31;97587.75;;;12.46;100.00
45939;BME280;31650;48.818;9.116;2023-05-22T01:43:40;97600.75;;;12.15;100.00
45939;BME280;31650;48.818;9.116;2023-05-22T01:58:47;97607.03;;;12.04;100.00
45939;BME280;31650;48.818;9.116;2023-05-22T02:13:48;97611.50;;;11.75;100.00
45939;BME280;31650;48.818;9.116;2023-05-22T02:28:49;97602.63;;;11.56;100.00
45939;BME280;31650;48.818;9.116;2023-05-22T02:43:49;97594.34;;;11.62;100.00
45939;BME280;31650;48.818;9.116;2023-05-22T02:58:49;97598.97;;;11.62;100.00
45939;BME280;31650;48.818;9.116;2023-05-22T03:13:49;97616.13;;;11.74;100.00
45939;BME280;31650;48.818;9.116;2023-05-22T03:28:50;97611.16;;;11.83;100.00
45939;BME280;31650;48.818;9.116;2023-05-22T03:43:50;97615.53;;;12.19;100.00
45939;BME280;31650;48.818;9.116;2023-05-22T03:58:50;97631.50;;;12.51;100.00
45939;BME280;31650;48.818;9.116;2023-05-22T04:13:50;97626.91;;;13.09;100.00
45939;BME280;31650;48.818;9.116;2023-05-22T04:28:51;97634.00;;;13.38;100.00
45939;BME280;31650;48.818;9.116;2023-05-22T04:43:51;97642.03;;;13.45;100.00
45939;BME280;31650;48.818;9.116;2023-05-22T04:58:51;97652.31;;;13.72;100.00
45939;BME280;31650;48.818;9.116;2023-05-22T05:13:52;97644.88;;;14.23;100.00
45939;BME280;31650;48.818;9.116;2023-05-22T05:28:53;97624.06;;;15.64;100.00
45939;BME280;31650;48.818;9.116;2023-05-22T05:43:53;97572.19;;;18.88;100.00
45939;BME280;31650;48.818;9.116;2023-05-22T05:58:56;97566.22;;;19.84;86.60
45939;BME280;31650;48.818;9.116;2023-05-22T06:14:05;97590.53;;;19.03;91.12
45939;BME280;31650;48.818;9.116;2023-05-22T06:29:12;97598.72;;;20.46;80.06
45939;BME280;31650;48.818;9.116;2023-05-22T06:44:21;97587.66;;;22.35;68.87
45939;BME280;31650;48.818;9.116;2023-05-22T06:59:24;97586.38;;;24.14;61.81
45939;BME280;31650;48.818;9.116;2023-05-22T07:14:34;97590.50;;;25.05;57.88
45939;BME280;31650;48.818;9.116;2023-05-22T08:00:48;97591.72;;;25.57;56.06
45939;BME280;31650;48.818;9.116;2023-05-22T08:15:55;97592.50;;;26.09;53.37
45939;BME280;31650;48.818;9.116;2023-05-22T08:30:56;97589.75;;;25.40;55.65
45939;BME280;31650;48.818;9.116;2023-05-22T08:46:04;97583.56;;;26.51;52.58
45939;BME280;31650;48.818;9.116;2023-05-22T09:01:09;97578.97;;;26.46;53.35
45939;BME280;31650;48.818;9.116;2023-05-22T09:16:10;97588.44;;;25.81;55.46
45939;BME280;31650;48.818;9.116;2023-05-22T09:31:11;97581.84;;;26.20;54.49
45939;BME280;31650;48.818;9.116;2023-05-22T09:46:17;97575.81;;;26.65;52.69
45939;BME280;31650;48.818;9.116;2023-05-22T10:01:18;97575.41;;;27.05;51.21
45939;BME280;31650;48.818;9.116;2023-05-22T10:16:19;97572.06;;;28.29;46.67
45939;BME280;31650;48.818;9.116;2023-05-22T10:31:25;97570.06;;;28.63;46.31
45939;BME280;31650;48.818;9.116;2023-05-22T10:46:26;97562.22;;;28.56;47.66
45939;BME280;31650;48.818;9.116;2023-05-22T11:01:31;97545.69;;;29.53;46.55
45939;BME280;31650;48.818;9.116;2023-05-22T11:16:36;97527.78;;;29.42;44.63
45939;BME280;31650;48.818;9.116;2023-05-22T11:31:37;97520.50;;;30.41;43.21
45939;BME280;31650;48.818;9.116;2023-05-22T11:46:37;97506.50;;;29.81;44.09
45939;BME280;31650;48.818;9.116;2023-05-22T12:01:37;97489.75;;;29.69;44.46
45939;BME280;31650;48.818;9.116;2023-05-22T12:16:38;97476.72;;;30.52;42.47
45939;BME280;31650;48.818;9.116;2023-05-22T12:31:38;97467.22;;;30.41;41.82
45939;BME280;31650;48.818;9.116;2023-05-22T12:46:39;97487.47;;;30.03;42.74
45939;BME280;31650;48.818;9.116;2023-05-22T13:01:39;97478.72;;;31.81;39.61
45939;BME280;31650;48.818;9.116;2023-05-22T13:16:40;97455.44;;;31.22;39.64
45939;BME280;31650;48.818;9.116;2023-05-22T13:31:40;97460.25;;;30.51;39.55
45939;BME280;31650;48.818;9.116;2023-05-22T13:46:40;97463.16;;;31.64;40.42
45939;BME280;31650;48.818;9.116;2023-05-22T14:01:41;97448.16;;;31.99;37.25
45939;BME280;31650;48.818;9.116;2023-05-22T14:16:41;97443.81;;;31.39;38.58
45939;BME280;31650;48.818;9.116;2023-05-22T14:31:45;97424.53;;;31.80;37.75
45939;BME280;31650;48.818;9.116;2023-05-22T14:46:48;97441.56;;;31.68;38.32
45939;BME280;31650;48.818;9.116;2023-05-22T15:01:49;97460.84;;;31.70;37.80
45939;BME280;31650;48.818;9.116;2023-05-22T15:16:50;97455.16;;;31.66;37.43
45939;BME280;31650;48.818;9.116;2023-05-22T15:31:51;97449.66;;;32.16;33.62
45939;BME280;31650;48.818;9.116;2023-05-22T15:46:51;97420.72;;;32.15;34.00
45939;BME280;31650;48.818;9.116;2023-05-22T16:01:51;97440.66;;;32.30;34.62
45939;BME280;31650;48.818;9.116;2023-05-22T16:16:51;97437.13;;;31.09;35.81
45939;BME280;31650;48.818;9.116;2023-05-22T16:31:52;97436.72;;;28.42;39.97
45939;BME280;31650;48.818;9.116;2023-05-22T16:46:52;97468.97;;;26.14;47.63
45939;BME280;31650;48.818;9.116;2023-05-22T17:01:53;97482.00;;;25.75;48.96
45939;BME280;31650;48.818;9.116;2023-05-22T17:16:54;97503.00;;;25.12;50.84
45939;BME280;31650;48.818;9.116;2023-05-22T17:31:55;97486.63;;;24.27;54.42
45939;BME280;31650;48.818;9.116;2023-05-22T17:46:58;97515.91;;;23.25;58.64
45939;BME280;31650;48.818;9.116;2023-05-22T18:02:01;97526.41;;;21.62;61.23
45939;BME280;31650;48.818;9.116;2023-05-22T18:17:02;97540.03;;;20.83;65.98
45939;BME280;31650;48.818;9.116;2023-05-22T18:32:03;97545.09;;;20.04;71.86
45939;BME280;31650;48.818;9.116;2023-05-22T18:47:04;97547.63;;;19.66;77.04
45939;BME280;31650;48.818;9.116;2023-05-22T19:02:04;97559.44;;;19.37;81.83
45939;BME280;31650;48.818;9.116;2023-05-22T19:17:04;97566.84;;;19.02;90.04
45939;BME280;31650;48.818;9.116;2023-05-22T19:32:05;97596.66;;;18.90;93.11
45939;BME280;31650;48.818;9.116;2023-05-22T19:47:08;97613.19;;;18.90;94.79
45939;BME280;31650;48.818;9.116;2023-05-22T20:02:11;97620.50;;;18.50;96.96
45939;BME280;31650;48.818;9.116;2023-05-22T20:17:12;97622.44;;;18.34;100.00
45939;BME280;31650;48.818;9.116;2023-05-22T20:32:12;97633.78;;;18.07;100.00
45939;BME280;31650;48.818;9.116;2023-05-22T20:47:12;97659.34;;;17.72;100.00
45939;BME280;31650;48.818;9.116;2023-05-22T21:02:12;97684.25;;;17.19;100.00
45939;BME280;31650;48.818;9.116;2023-05-22T21:17:13;97683.03;;;16.84;100.00
45939;BME280;31650;48.818;9.116;2023-05-22T21:32:13;97696.13;;;16.77;100.00
45939;BME280;31650;48.818;9.116;2023-05-22T21:47:13;97707.41;;;16.80;100.00
45939;BME280;31650;48.818;9.116;2023-05-22T22:02:13;97710.84;;;17.03;100.00
45939;BME280;31650;48.818;9.116;2023-05-22T22:17:13;97712.16;;;16.95;100.00
45939;BME280;31650;48.818;9.116;2023-05-22T22:32:15;97727.47;;;16.81;100.00
45939;BME280;31650;48.818;9.116;2023-05-22T22:47:15;97729.00;;;16.67;100.00
45939;BME280;31650;48.818;9.116;2023-05-22T23:02:16;97730.56;;;16.52;100.00
45939;BME280;31650;48.818;9.116;2023-05-22T23:17:16;97744.78;;;16.44;100.00
45939;BME280;31650;48.818;9.116;2023-05-22T23:32:16;97761.38;;;16.27;100.00
45939;BME280;31650;48.818;9.116;2023-05-22T23:47:16;97788.25;;;16.57;100.00
